sensor_id;sensor_type;location;lat;lon;timestamp;pressure;altitude;pressure_sealevel;temperature;humidity
10366;BME280;5229;41.820;23.490;2022-09-03T00:00:24;90020.34;;;19.00;69.11
10366;BME280;5229;41.820;23.490;2022-09-03T00:02:57;90021.38;;;18.95;69.25
10366;BME280;5229;41.820;23.490;2022-09-03T00:05:31;90027.00;;;18.94;69.12
10366;BME280;5229;41.820;23.490;2022-09-03T00:08:03;90024.69;;;18.89;69.31
10366;BME280;5229;41.820;23.490;2022-09-03T00:10:38;90018.66;;;18.88;69.43
10366;BME280;5229;41.820;23.490;2022-09-03T00:13:12;90015.28;;;18.88;69.30
10366;BME280;5229;41.820;23.490;2022-09-03T00:15:39;90018.19;;;18.83;69.34
10366;BME280;5229;41.820;23.490;2022-09-03T00:18:13;90021.94;;;18.82;69.38
10366;BME280;5229;41.820;23.490;2022-09-03T00:20:44;90021.50;;;18.80;68.89
10366;BME280;5229;41.820;23.490;2022-09-03T00:23:15;90029.69;;;18.75;68.70
10366;BME280;5229;41.820;23.490;2022-09-03T00:25:51;90028.81;;;18.67;68.80
10366;BME280;5229;41.820;23.490;2022-09-03T00:28:22;90022.72;;;18.60;68.92
10366;BME280;5229;41.820;23.490;2022-09-03T00:34:17;90027.03;;;18.49;68.90
10366;BME280;5229;41.820;23.490;2022-09-03T00:36:47;90022.47;;;18.46;69.01
10366;BME280;5229;41.820;23.490;2022-09-03T00:39:16;90022.81;;;18.44;69.24
10366;BME280;5229;41.820;23.490;2022-09-03T00:41:52;90023.84;;;18.40;69.22
10366;BME280;5229;41.820;23.490;2022-09-03T00:44:34;90016.94;;;18.32;69.21
10366;BME280;5229;41.820;23.490;2022-09-03T00:47:14;90013.91;;;18.30;69.14
10366;BME280;5229;41.820;23.490;2022-09-03T00:49:51;90019.84;;;18.27;69.19
10366;BME280;5229;41.820;23.490;2022-09-03T00:52:33;90015.31;;;18.24;69.40
10366;BME280;5229;41.820;23.490;2022-09-03T00:55:11;90013.38;;;18.21;69.28
10366;BME280;5229;41.820;23.490;2022-09-03T00:57:47;90009.94;;;18.17;69.37
10366;BME280;5229;41.820;23.490;2022-09-03T01:00:18;90011.72;;;18.13;69.37
10366;BME280;5229;41.820;23.490;2022-09-03T01:03:03;90005.16;;;18.03;69.36
10366;BME280;5229;41.820;23.490;2022-09-03T01:05:41;90011.44;;;17.99;69.48
10366;BME280;5229;41.820;23.490;2022-09-03T01:08:19;90012.50;;;17.94;69.68
10366;BME280;5229;41.820;23.490;2022-09-03T01:10:55;90007.53;;;17.89;69.86
10366;BME280;5229;41.820;23.490;2022-09-03T01:13:28;90007.88;;;17.88;69.96
10366;BME280;5229;41.820;23.490;2022-09-03T01:16:06;90016.81;;;17.83;69.99
10366;BME280;5229;41.820;23.490;2022-09-03T01:18:41;90012.59;;;17.79;70.13
10366;BME280;5229;41.820;23.490;2022-09-03T01:21:28;90008.38;;;17.74;70.49
10366;BME280;5229;41.820;23.490;2022-09-03T01:24:22;90006.38;;;17.68;70.33
10366;BME280;5229;41.820;23.490;2022-09-03T01:33:14;90008.03;;;17.57;71.19
10366;BME280;5229;41.820;23.490;2022-09-03T01:35:46;90011.41;;;17.57;71.19
10366;BME280;5229;41.820;23.490;2022-09-03T01:38:21;90023.00;;;17.56;71.00
10366;BME280;5229;41.820;23.490;2022-09-03T01:40:59;90013.28;;;17.57;70.82
10366;BME280;5229;41.820;23.490;2022-09-03T01:43:56;90014.34;;;17.56;70.72
10366;BME280;5229;41.820;23.490;2022-09-03T01:46:30;90017.31;;;17.54;71.04
10366;BME280;5229;41.820;23.490;2022-09-03T01:49:08;90025.81;;;17.48;70.51
10366;BME280;5229;41.820;23.490;2022-09-03T01:51:38;90023.47;;;17.42;70.83
10366;BME280;5229;41.820;23.490;2022-09-03T01:57:18;90034.47;;;17.32;71.41
10366;BME280;5229;41.820;23.490;2022-09-03T01:59:56;90037.47;;;17.34;71.27
10366;BME280;5229;41.820;23.490;2022-09-03T02:02:26;90037.47;;;17.34;71.16
10366;BME280;5229;41.820;23.490;2022-09-03T02:04:59;90034.19;;;17.37;71.34
10366;BME280;5229;41.820;23.490;2022-09-03T02:07:31;90036.06;;;17.37;70.78
10366;BME280;5229;41.820;23.490;2022-09-03T02:09:59;90039.03;;;17.35;70.83
10366;BME280;5229;41.820;23.490;2022-09-03T02:12:29;90033.00;;;17.35;70.52
10366;BME280;5229;41.820;23.490;2022-09-03T02:14:58;90021.06;;;17.37;70.76
10366;BME280;5229;41.820;23.490;2022-09-03T02:17:28;90027.00;;;17.34;70.53
10366;BME280;5229;41.820;23.490;2022-09-03T02:19:56;90021.34;;;17.32;70.45
10366;BME280;5229;41.820;23.490;2022-09-03T02:22:42;90032.53;;;17.29;70.98
10366;BME280;5229;41.820;23.490;2022-09-03T02:28:31;90042.00;;;17.18;70.62
10366;BME280;5229;41.820;23.490;2022-09-03T02:30:58;90044.63;;;17.18;71.15
10366;BME280;5229;41.820;23.490;2022-09-03T02:33:25;90050.72;;;17.22;71.58
10366;BME280;5229;41.820;23.490;2022-09-03T02:35:54;90043.00;;;17.29;72.01
10366;BME280;5229;41.820;23.490;2022-09-03T02:38:24;90033.78;;;17.35;71.66
10366;BME280;5229;41.820;23.490;2022-09-03T02:40:51;90029.38;;;17.39;72.25
10366;BME280;5229;41.820;23.490;2022-09-03T02:43:22;90018.22;;;17.42;72.37
10366;BME280;5229;41.820;23.490;2022-09-03T02:45:56;90025.63;;;17.40;72.00
10366;BME280;5229;41.820;23.490;2022-09-03T02:48:25;90022.59;;;17.38;71.84
10366;BME280;5229;41.820;23.490;2022-09-03T02:50:53;90023.69;;;17.37;72.24
10366;BME280;5229;41.820;23.490;2022-09-03T02:53:20;90021.75;;;17.34;72.14
10366;BME280;5229;41.820;23.490;2022-09-03T02:55:47;90028.09;;;17.33;71.71
10366;BME280;5229;41.820;23.490;2022-09-03T02:58:14;90023.53;;;17.30;71.78
10366;BME280;5229;41.820;23.490;2022-09-03T03:00:41;90019.75;;;17.28;72.49
10366;BME280;5229;41.820;23.490;2022-09-03T03:03:08;90018.59;;;17.25;72.71
10366;BME280;5229;41.820;23.490;2022-09-03T03:05:40;90017.47;;;17.26;72.37
10366;BME280;5229;41.820;23.490;2022-09-03T03:08:10;90027.56;;;17.24;72.14
10366;BME280;5229;41.820;23.490;2022-09-03T03:10:39;90035.25;;;17.17;72.13
10366;BME280;5229;41.820;23.490;2022-09-03T03:13:06;90035.09;;;17.10;72.48
10366;BME280;5229;41.820;23.490;2022-09-03T03:15:33;90033.16;;;17.07;72.53
10366;BME280;5229;41.820;23.490;2022-09-03T03:18:00;90031.63;;;17.06;72.39
10366;BME280;5229;41.820;23.490;2022-09-03T03:20:27;90030.94;;;17.09;72.36
10366;BME280;5229;41.820;23.490;2022-09-03T03:22:54;90031.38;;;17.11;72.47
10366;BME280;5229;41.820;23.490;2022-09-03T03:25:22;90034.84;;;17.15;72.87
10366;BME280;5229;41.820;23.490;2022-09-03T03:27:49;90035.59;;;17.16;72.12
10366;BME280;5229;41.820;23.490;2022-09-03T03:30:17;90022.84;;;17.14;72.23
10366;BME280;5229;41.820;23.490;2022-09-03T03:32:45;90029.25;;;17.17;72.09
10366;BME280;5229;41.820;23.490;2022-09-03T03:35:12;90031.19;;;17.20;72.09
10366;BME280;5229;41.820;23.490;2022-09-03T03:37:38;90034.97;;;17.22;72.18
10366;BME280;5229;41.820;23.490;2022-09-03T03:40:06;90036.50;;;17.23;71.54
10366;BME280;5229;41.820;23.490;2022-09-03T03:42:34;90035.31;;;17.21;71.88
10366;BME280;5229;41.820;23.490;2022-09-03T03:45:01;90035.66;;;17.19;71.51
10366;BME280;5229;41.820;23.490;2022-09-03T03:47:28;90036.34;;;17.16;71.44
10366;BME280;5229;41.820;23.490;2022-09-03T03:49:56;90025.03;;;17.12;71.60
10366;BME280;5229;41.820;23.490;2022-09-03T03:52:23;90036.97;;;17.10;71.37
10366;BME280;5229;41.820;23.490;2022-09-03T03:54:51;90039.16;;;17.08;71.10
10366;BME280;5229;41.820;23.490;2022-09-03T03:57:18;90034.94;;;17.03;71.95
10366;BME280;5229;41.820;23.490;2022-09-03T03:59:47;90039.47;;;17.06;71.95
10366;BME280;5229;41.820;23.490;2022-09-03T04:02:14;90041.44;;;17.09;71.62
10366;BME280;5229;41.820;23.490;2022-09-03T04:04:41;90042.97;;;17.10;71.59
10366;BME280;5229;41.820;23.490;2022-09-03T04:07:08;90041.53;;;17.13;71.13
10366;BME280;5229;41.820;23.490;2022-09-03T04:09:35;90037.78;;;17.14;71.42
10366;BME280;5229;41.820;23.490;2022-09-03T04:12:02;90040.13;;;17.19;71.29
10366;BME280;5229;41.820;23.490;2022-09-03T04:14:33;90048.44;;;17.21;70.64
10366;BME280;5229;41.820;23.490;2022-09-03T04:17:01;90044.28;;;17.20;70.49
10366;BME280;5229;41.820;23.490;2022-09-03T04:19:28;90060.38;;;17.18;70.58
10366;BME280;5229;41.820;23.490;2022-09-03T04:21:55;90061.19;;;17.22;70.76
10366;BME280;5229;41.820;23.490;2022-09-03T04:24:22;90055.28;;;17.25;70.78
10366;BME280;5229;41.820;23.490;2022-09-03T04:26:49;90054.25;;;17.30;70.76
10366;BME280;5229;41.820;23.490;2022-09-03T04:29:18;90057.72;;;17.34;70.86
10366;BME280;5229;41.820;23.490;2022-09-03T04:31:46;90061.56;;;17.40;70.34
10366;BME280;5229;41.820;23.490;2022-09-03T04:34:28;90061.75;;;17.47;70.35
10366;BME280;5229;41.820;23.490;2022-09-03T04:36:55;90057.00;;;17.52;70.06
10366;BME280;5229;41.820;23.490;2022-09-03T04:39:23;90068.16;;;17.65;70.06
10366;BME280;5229;41.820;23.490;2022-09-03T04:41:50;90067.66;;;17.79;70.12
10366;BME280;5229;41.820;23.490;2022-09-03T04:44:16;90076.50;;;17.90;69.58
10366;BME280;5229;41.820;23.490;2022-09-03T04:46:43;90081.63;;;18.02;69.73
10366;BME280;5229;41.820;23.490;2022-09-03T04:49:12;90087.13;;;18.16;69.69
10366;BME280;5229;41.820;23.490;2022-09-03T04:51:40;90085.91;;;18.29;68.88
10366;BME280;5229;41.820;23.490;2022-09-03T04:54:08;90086.97;;;18.43;68.74
10366;BME280;5229;41.820;23.490;2022-09-03T04:56:37;90088.66;;;18.55;68.56
10366;BME280;5229;41.820;23.490;2022-09-03T04:59:06;90089.97;;;18.64;68.70
10366;BME280;5229;41.820;23.490;2022-09-03T05:01:35;90089.03;;;18.76;68.65
10366;BME280;5229;41.820;23.490;2022-09-03T05:04:03;90079.44;;;18.87;68.45
10366;BME280;5229;41.820;23.490;2022-09-03T05:06:31;90090.59;;;19.03;67.82
10366;BME280;5229;41.820;23.490;2022-09-03T05:08:59;90090.06;;;19.16;67.79
10366;BME280;5229;41.820;23.490;2022-09-03T05:11:27;90099.31;;;19.29;67.39
10366;BME280;5229;41.820;23.490;2022-09-03T05:13:56;90094.63;;;19.42;67.04
10366;BME280;5229;41.820;23.490;2022-09-03T05:16:23;90091.03;;;19.53;66.94
10366;BME280;5229;41.820;23.490;2022-09-03T05:18:51;90096.16;;;19.69;66.70
10366;BME280;5229;41.820;23.490;2022-09-03T05:21:19;90093.47;;;19.91;66.41
10366;BME280;5229;41.820;23.490;2022-09-03T05:23:47;90095.63;;;20.12;65.76
10366;BME280;5229;41.820;23.490;2022-09-03T05:26:17;90092.88;;;20.35;65.22
10366;BME280;5229;41.820;23.490;2022-09-03T05:28:44;90096.22;;;20.65;64.82
10366;BME280;5229;41.820;23.490;2022-09-03T05:31:13;90088.66;;;20.96;64.47
10366;BME280;5229;41.820;23.490;2022-09-03T05:33:41;90095.69;;;21.25;64.00
10366;BME280;5229;41.820;23.490;2022-09-03T05:36:10;90094.03;;;21.57;63.33
10366;BME280;5229;41.820;23.490;2022-09-03T05:38:37;90096.44;;;21.76;62.46
10366;BME280;5229;41.820;23.490;2022-09-03T05:41:06;90094.22;;;21.82;61.92
10366;BME280;5229;41.820;23.490;2022-09-03T05:43:34;90096.50;;;21.83;61.80
10366;BME280;5229;41.820;23.490;2022-09-03T05:46:03;90101.03;;;21.86;62.08
10366;BME280;5229;41.820;23.490;2022-09-03T05:48:31;90099.13;;;21.83;62.37
10366;BME280;5229;41.820;23.490;2022-09-03T05:50:59;90098.75;;;21.81;62.76
10366;BME280;5229;41.820;23.490;2022-09-03T05:53:26;90111.91;;;21.74;62.85
10366;BME280;5229;41.820;23.490;2022-09-03T05:55:54;90113.72;;;21.67;62.88
10366;BME280;5229;41.820;23.490;2022-09-03T05:58:42;90107.56;;;21.52;63.12
10366;BME280;5229;41.820;23.490;2022-09-03T06:01:10;90110.19;;;21.52;63.60
10366;BME280;5229;41.820;23.490;2022-09-03T06:03:38;90110.59;;;21.54;63.43
10366;BME280;5229;41.820;23.490;2022-09-03T06:06:05;90110.28;;;21.63;63.74
10366;BME280;5229;41.820;23.490;2022-09-03T06:08:32;90118.25;;;21.70;63.53
10366;BME280;5229;41.820;23.490;2022-09-03T06:10:59;90123.63;;;21.80;63.27
10366;BME280;5229;41.820;23.490;2022-09-03T06:13:28;90113.56;;;21.96;62.92
10366;BME280;5229;41.820;23.490;2022-09-03T06:15:58;90114.78;;;22.09;62.90
10366;BME280;5229;41.820;23.490;2022-09-03T06:18:25;90111.81;;;22.18;62.96
10366;BME280;5229;41.820;23.490;2022-09-03T06:20:53;90114.44;;;22.21;62.39
10366;BME280;5229;41.820;23.490;2022-09-03T06:23:20;90124.25;;;22.17;62.57
10366;BME280;5229;41.820;23.490;2022-09-03T06:25:47;90118.56;;;22.15;62.70
10366;BME280;5229;41.820;23.490;2022-09-03T06:28:14;90111.00;;;22.14;62.77
10366;BME280;5229;41.820;23.490;2022-09-03T06:30:40;90109.84;;;22.08;62.78
10366;BME280;5229;41.820;23.490;2022-09-03T06:33:08;90111.69;;;22.00;62.75
10366;BME280;5229;41.820;23.490;2022-09-03T06:35:35;90104.47;;;21.90;63.21
10366;BME280;5229;41.820;23.490;2022-09-03T06:38:02;90108.63;;;21.91;62.88
10366;BME280;5229;41.820;23.490;2022-09-03T06:40:29;90106.78;;;21.95;62.91
10366;BME280;5229;41.820;23.490;2022-09-03T06:42:56;90120.38;;;22.04;62.92
10366;BME280;5229;41.820;23.490;2022-09-03T06:45:26;90114.09;;;22.26;62.26
10366;BME280;5229;41.820;23.490;2022-09-03T06:47:54;90120.97;;;22.41;61.83
10366;BME280;5229;41.820;23.490;2022-09-03T06:50:22;90130.09;;;22.51;61.27
10366;BME280;5229;41.820;23.490;2022-09-03T06:53:07;90121.06;;;22.55;61.38
10366;BME280;5229;41.820;23.490;2022-09-03T06:55:35;90124.16;;;22.78;60.66
10366;BME280;5229;41.820;23.490;2022-09-03T06:58:04;90127.94;;;22.81;60.61
10366;BME280;5229;41.820;23.490;2022-09-03T07:00:31;90129.84;;;22.80;60.27
10366;BME280;5229;41.820;23.490;2022-09-03T07:02:57;90125.28;;;22.77;60.48
10366;BME280;5229;41.820;23.490;2022-09-03T07:05:26;90129.81;;;22.73;60.15
10366;BME280;5229;41.820;23.490;2022-09-03T07:07:53;90129.41;;;22.71;60.15
10366;BME280;5229;41.820;23.490;2022-09-03T07:10:20;90120.75;;;22.78;60.08
10366;BME280;5229;41.820;23.490;2022-09-03T07:12:46;90128.00;;;22.99;59.93
10366;BME280;5229;41.820;23.490;2022-09-03T07:15:13;90135.59;;;23.14;59.11
10366;BME280;5229;41.820;23.490;2022-09-03T07:17:40;90126.88;;;23.21;58.81
10366;BME280;5229;41.820;23.490;2022-09-03T07:20:07;90127.72;;;23.53;58.28
10366;BME280;5229;41.820;23.490;2022-09-03T07:22:35;90143.19;;;24.21;56.37
10366;BME280;5229;41.820;23.490;2022-09-03T07:25:03;90139.34;;;24.64;55.59
10366;BME280;5229;41.820;23.490;2022-09-03T07:27:30;90146.84;;;24.83;55.06
10366;BME280;5229;41.820;23.490;2022-09-03T07:29:56;90151.34;;;24.93;54.01
10366;BME280;5229;41.820;23.490;2022-09-03T07:32:23;90148.31;;;24.91;54.45
10366;BME280;5229;41.820;23.490;2022-09-03T07:34:50;90149.75;;;25.06;54.28
10366;BME280;5229;41.820;23.490;2022-09-03T07:37:17;90150.09;;;25.15;53.68
10366;BME280;5229;41.820;23.490;2022-09-03T07:39:45;90148.19;;;25.19;52.84
10366;BME280;5229;41.820;23.490;2022-09-03T07:42:12;90156.38;;;25.49;52.87
10366;BME280;5229;41.820;23.490;2022-09-03T07:44:38;90159.47;;;26.39;50.71
10366;BME280;5229;41.820;23.490;2022-09-03T07:47:06;90167.84;;;28.68;46.27
10366;BME280;5229;41.820;23.490;2022-09-03T07:49:33;90176.09;;;30.87;42.20
10366;BME280;5229;41.820;23.490;2022-09-03T07:52:01;90180.38;;;32.91;38.58
10366;BME280;5229;41.820;23.490;2022-09-03T07:54:28;90182.28;;;34.51;35.15
10366;BME280;5229;41.820;23.490;2022-09-03T07:56:57;90183.56;;;36.03;33.29
10366;BME280;5229;41.820;23.490;2022-09-03T07:59:23;90190.81;;;37.27;31.57
10366;BME280;5229;41.820;23.490;2022-09-03T08:01:50;90198.69;;;38.22;30.21
10366;BME280;5229;41.820;23.490;2022-09-03T08:04:17;90195.47;;;38.67;29.65
10366;BME280;5229;41.820;23.490;2022-09-03T08:06:46;90203.06;;;39.52;28.61
10366;BME280;5229;41.820;23.490;2022-09-03T08:09:14;90210.47;;;40.48;27.29
10366;BME280;5229;41.820;23.490;2022-09-03T08:11:41;90202.66;;;41.29;25.84
10366;BME280;5229;41.820;23.490;2022-09-03T08:14:11;90208.66;;;42.08;24.65
10366;BME280;5229;41.820;23.490;2022-09-03T08:16:39;90202.53;;;42.51;23.64
10366;BME280;5229;41.820;23.490;2022-09-03T08:19:07;90199.28;;;42.25;23.86
10366;BME280;5229;41.820;23.490;2022-09-03T08:21:34;90199.69;;;41.32;24.60
10366;BME280;5229;41.820;23.490;2022-09-03T08:24:01;90209.09;;;40.32;25.44
10366;BME280;5229;41.820;23.490;2022-09-03T08:26:29;90201.97;;;39.24;26.75
10366;BME280;5229;41.820;23.490;2022-09-03T08:28:57;90187.75;;;38.31;27.15
10366;BME280;5229;41.820;23.490;2022-09-03T08:31:26;90188.38;;;37.67;28.15
10366;BME280;5229;41.820;23.490;2022-09-03T08:33:54;90190.31;;;37.05;28.98
10366;BME280;5229;41.820;23.490;2022-09-03T08:36:23;90191.59;;;36.30;29.42
10366;BME280;5229;41.820;23.490;2022-09-03T08:38:53;90183.56;;;35.94;30.05
10366;BME280;5229;41.820;23.490;2022-09-03T08:41:24;90185.59;;;36.91;29.28
10366;BME280;5229;41.820;23.490;2022-09-03T08:44:08;90180.34;;;38.46;27.16
10366;BME280;5229;41.820;23.490;2022-09-03T08:46:45;90193.13;;;39.09;26.14
10366;BME280;5229;41.820;23.490;2022-09-03T08:49:19;90192.13;;;38.43;26.71
10366;BME280;5229;41.820;23.490;2022-09-03T08:51:49;90182.34;;;38.01;27.00
10366;BME280;5229;41.820;23.490;2022-09-03T08:54:20;90182.31;;;37.34;27.92
10366;BME280;5229;41.820;23.490;2022-09-03T08:56:50;90184.41;;;37.54;28.11
10366;BME280;5229;41.820;23.490;2022-09-03T08:59:18;90183.25;;;37.46;27.87
10366;BME280;5229;41.820;23.490;2022-09-03T09:01:51;90182.91;;;37.15;27.96
10366;BME280;5229;41.820;23.490;2022-09-03T09:04:31;90182.81;;;36.44;28.88
10366;BME280;5229;41.820;23.490;2022-09-03T09:07:08;90179.72;;;36.19;29.11
10366;BME280;5229;41.820;23.490;2022-09-03T09:09:43;90186.59;;;35.96;29.53
10366;BME280;5229;41.820;23.490;2022-09-03T09:12:22;90179.75;;;36.28;29.50
10366;BME280;5229;41.820;23.490;2022-09-03T09:15:04;90178.69;;;36.16;29.50
10366;BME280;5229;41.820;23.490;2022-09-03T09:17:49;90182.00;;;36.29;28.90
10366;BME280;5229;41.820;23.490;2022-09-03T09:20:25;90187.25;;;37.12;28.17
10366;BME280;5229;41.820;23.490;2022-09-03T09:22:56;90186.38;;;38.21;27.32
10366;BME280;5229;41.820;23.490;2022-09-03T09:25:24;90192.22;;;38.04;27.38
10366;BME280;5229;41.820;23.490;2022-09-03T09:27:57;90179.56;;;37.58;27.31
10366;BME280;5229;41.820;23.490;2022-09-03T09:30:25;90180.44;;;36.70;28.67
10366;BME280;5229;41.820;23.490;2022-09-03T09:32:53;90172.25;;;35.54;29.78
10366;BME280;5229;41.820;23.490;2022-09-03T09:35:21;90170.06;;;34.77;30.99
10366;BME280;5229;41.820;23.490;2022-09-03T09:37:55;90168.13;;;34.29;31.19
10366;BME280;5229;41.820;23.490;2022-09-03T09:40:29;90165.94;;;35.12;30.85
10366;BME280;5229;41.820;23.490;2022-09-03T09:43:10;90163.63;;;36.42;28.50
10366;BME280;5229;41.820;23.490;2022-09-03T09:45:38;90168.06;;;37.48;27.97
10366;BME280;5229;41.820;23.490;2022-09-03T09:48:14;90178.06;;;38.10;26.50
10366;BME280;5229;41.820;23.490;2022-09-03T09:50:42;90170.28;;;38.02;26.64
10366;BME280;5229;41.820;23.490;2022-09-03T09:53:10;90170.09;;;38.35;26.57
10366;BME280;5229;41.820;23.490;2022-09-03T09:55:50;90169.53;;;39.15;26.15
10366;BME280;5229;41.820;23.490;2022-09-03T09:58:36;90172.16;;;39.29;25.61
10366;BME280;5229;41.820;23.490;2022-09-03T10:01:04;90176.97;;;39.60;24.86
10366;BME280;5229;41.820;23.490;2022-09-03T10:03:46;90174.78;;;39.84;24.41
10366;BME280;5229;41.820;23.490;2022-09-03T10:06:14;90185.94;;;39.66;25.05
10366;BME280;5229;41.820;23.490;2022-09-03T10:09:20;90184.59;;;38.32;25.83
10366;BME280;5229;41.820;23.490;2022-09-03T10:11:50;90181.16;;;37.26;27.50
10366;BME280;5229;41.820;23.490;2022-09-03T10:14:24;90181.94;;;36.38;28.45
10366;BME280;5229;41.820;23.490;2022-09-03T10:17:02;90182.09;;;35.75;29.43
10366;BME280;5229;41.820;23.490;2022-09-03T10:19:39;90189.00;;;35.13;29.53
10366;BME280;5229;41.820;23.490;2022-09-03T10:22:29;90179.00;;;34.16;31.41
10366;BME280;5229;41.820;23.490;2022-09-03T10:24:59;90184.97;;;33.25;32.21
10366;BME280;5229;41.820;23.490;2022-09-03T10:27:28;90178.19;;;32.52;33.19
10366;BME280;5229;41.820;23.490;2022-09-03T10:29:57;90174.31;;;31.78;34.01
10366;BME280;5229;41.820;23.490;2022-09-03T10:32:31;90166.72;;;31.77;34.21
10366;BME280;5229;41.820;23.490;2022-09-03T10:35:09;90167.44;;;32.52;33.69
10366;BME280;5229;41.820;23.490;2022-09-03T10:37:43;90169.25;;;32.68;33.23
10366;BME280;5229;41.820;23.490;2022-09-03T10:40:21;90162.31;;;32.20;33.38
10366;BME280;5229;41.820;23.490;2022-09-03T10:43:03;90161.56;;;31.70;34.89
10366;BME280;5229;41.820;23.490;2022-09-03T10:45:38;90153.06;;;31.18;35.90
10366;BME280;5229;41.820;23.490;2022-09-03T10:51:15;90153.78;;;30.29;36.87
10366;BME280;5229;41.820;23.490;2022-09-03T10:54:06;90149.34;;;29.90;37.86
10366;BME280;5229;41.820;23.490;2022-09-03T10:56:46;90145.50;;;29.56;38.37
10366;BME280;5229;41.820;23.490;2022-09-03T10:59:44;90143.59;;;29.37;39.27
10366;BME280;5229;41.820;23.490;2022-09-03T11:02:30;90153.75;;;29.26;38.82
10366;BME280;5229;41.820;23.490;2022-09-03T11:05:03;90150.91;;;29.17;39.49
10366;BME280;5229;41.820;23.490;2022-09-03T11:07:35;90148.69;;;29.12;39.52
10366;BME280;5229;41.820;23.490;2022-09-03T11:10:11;90154.81;;;29.12;39.92
10366;BME280;5229;41.820;23.490;2022-09-03T11:12:43;90149.53;;;29.09;39.15
10366;BME280;5229;41.820;23.490;2022-09-03T11:15:16;90157.22;;;29.07;38.70
10366;BME280;5229;41.820;23.490;2022-09-03T11:17:48;90157.38;;;28.96;39.16
10366;BME280;5229;41.820;23.490;2022-09-03T11:20:19;90158.31;;;28.86;39.44
10366;BME280;5229;41.820;23.490;2022-09-03T11:22:50;90158.19;;;28.74;39.99
10366;BME280;5229;41.820;23.490;2022-09-03T11:25:21;90161.22;;;28.53;39.90
10366;BME280;5229;41.820;23.490;2022-09-03T11:27:56;90154.72;;;28.31;40.18
10366;BME280;5229;41.820;23.490;2022-09-03T11:30:34;90157.19;;;28.22;40.84
10366;BME280;5229;41.820;23.490;2022-09-03T11:33:06;90154.16;;;28.20;40.62
10366;BME280;5229;41.820;23.490;2022-09-03T11:35:39;90154.34;;;28.09;40.93
10366;BME280;5229;41.820;23.490;2022-09-03T11:38:19;90154.50;;;27.98;41.30
10366;BME280;5229;41.820;23.490;2022-09-03T11:41:00;90149.38;;;27.84;41.50
10366;BME280;5229;41.820;23.490;2022-09-03T11:43:29;90151.72;;;27.79;41.44
10366;BME280;5229;41.820;23.490;2022-09-03T11:46:05;90151.16;;;27.64;41.73
10366;BME280;5229;41.820;23.490;2022-09-03T11:48:38;90147.00;;;27.63;41.91
10366;BME280;5229;41.820;23.490;2022-09-03T11:51:18;90155.94;;;27.50;41.99
10366;BME280;5229;41.820;23.490;2022-09-03T11:53:55;90153.50;;;27.32;41.76
10366;BME280;5229;41.820;23.490;2022-09-03T11:56:22;90154.03;;;27.20;42.72
10366;BME280;5229;41.820;23.490;2022-09-03T11:59:02;90157.94;;;27.12;42.92
10366;BME280;5229;41.820;23.490;2022-09-03T12:01:31;90153.72;;;27.15;43.22
10366;BME280;5229;41.820;23.490;2022-09-03T12:04:00;90146.97;;;27.07;42.89
10366;BME280;5229;41.820;23.490;2022-09-03T12:06:57;90148.25;;;26.95;43.32
10366;BME280;5229;41.820;23.490;2022-09-03T12:09:39;90147.50;;;26.95;43.93
10366;BME280;5229;41.820;23.490;2022-09-03T12:12:26;90153.66;;;26.88;43.77
10366;BME280;5229;41.820;23.490;2022-09-03T12:15:01;90157.97;;;26.79;44.19
10366;BME280;5229;41.820;23.490;2022-09-03T12:17:33;90155.72;;;26.74;44.69
10366;BME280;5229;41.820;23.490;2022-09-03T12:20:11;90147.03;;;26.70;44.12
10366;BME280;5229;41.820;23.490;2022-09-03T12:22:39;90147.00;;;26.73;44.13
10366;BME280;5229;41.820;23.490;2022-09-03T12:25:08;90142.38;;;26.77;44.44
10366;BME280;5229;41.820;23.490;2022-09-03T12:27:36;90145.06;;;26.74;44.67
10366;BME280;5229;41.820;23.490;2022-09-03T12:30:04;90149.97;;;26.79;44.34
10366;BME280;5229;41.820;23.490;2022-09-03T12:32:39;90145.00;;;26.81;44.85
10366;BME280;5229;41.820;23.490;2022-09-03T12:35:12;90141.53;;;26.84;44.99
10366;BME280;5229;41.820;23.490;2022-09-03T12:37:40;90139.28;;;26.82;45.14
10366;BME280;5229;41.820;23.490;2022-09-03T12:40:18;90135.97;;;26.71;44.24
10366;BME280;5229;41.820;23.490;2022-09-03T12:42:46;90145.63;;;26.55;44.48
10366;BME280;5229;41.820;23.490;2022-09-03T12:45:13;90130.53;;;26.45;44.63
10366;BME280;5229;41.820;23.490;2022-09-03T12:47:42;90136.63;;;26.42;45.03
10366;BME280;5229;41.820;23.490;2022-09-03T12:50:10;90122.59;;;26.41;44.88
10366;BME280;5229;41.820;23.490;2022-09-03T12:52:40;90125.25;;;26.41;45.13
10366;BME280;5229;41.820;23.490;2022-09-03T12:55:20;90126.00;;;26.42;44.78
10366;BME280;5229;41.820;23.490;2022-09-03T12:57:53;90119.94;;;26.41;44.93
10366;BME280;5229;41.820;23.490;2022-09-03T13:00:21;90120.00;;;26.34;45.35
10366;BME280;5229;41.820;23.490;2022-09-03T13:02:51;90113.16;;;26.33;45.27
10366;BME280;5229;41.820;23.490;2022-09-03T13:05:23;90116.97;;;26.36;44.98
10366;BME280;5229;41.820;23.490;2022-09-03T13:07:55;90126.84;;;26.35;45.36
10366;BME280;5229;41.820;23.490;2022-09-03T13:10:27;90117.69;;;26.36;45.26
10366;BME280;5229;41.820;23.490;2022-09-03T13:12:58;90114.69;;;26.34;44.50
10366;BME280;5229;41.820;23.490;2022-09-03T13:15:27;90124.63;;;26.30;44.97
10366;BME280;5229;41.820;23.490;2022-09-03T13:18:09;90118.22;;;26.24;44.79
10366;BME280;5229;41.820;23.490;2022-09-03T13:20:51;90114.78;;;26.24;44.69
10366;BME280;5229;41.820;23.490;2022-09-03T13:23:41;90113.31;;;26.19;44.87
10366;BME280;5229;41.820;23.490;2022-09-03T13:26:23;90117.19;;;26.11;44.75
10366;BME280;5229;41.820;23.490;2022-09-03T13:31:54;90121.06;;;26.03;44.49
10366;BME280;5229;41.820;23.490;2022-09-03T13:34:26;90121.09;;;26.00;44.61
10366;BME280;5229;41.820;23.490;2022-09-03T13:37:00;90121.13;;;25.96;44.47
10366;BME280;5229;41.820;23.490;2022-09-03T13:39:36;90124.94;;;25.92;45.05
10366;BME280;5229;41.820;23.490;2022-09-03T13:42:12;90125.31;;;25.90;44.59
10366;BME280;5229;41.820;23.490;2022-09-03T13:44:45;90117.34;;;25.90;45.15